sensor_id;sensor_type;location;lat;lon;timestamp;temperature;humidity
68139;DHT22;54940;50.842;4.410;2023-11-21T00:00:34;10.40;99.90
68139;DHT22;54940;50.842;4.410;2023-11-21T00:03:02;10.40;99.90
68139;DHT22;54940;50.842;4.410;2023-11-21T00:05:29;10.50;99.90
68139;DHT22;54940;50.842;4.410;2023-11-21T00:07:55;10.50;99.90
68139;DHT22;54940;50.842;4.410;2023-11-21T00:10:20;10.50;99.90
68139;DHT22;54940;50.842;4.410;2023-11-21T00:12:46;10.50;99.90
68139;DHT22;54940;50.842;4.410;2023-11-21T00:15:14;10.40;99.90
68139;DHT22;54940;50.842;4.410;2023-11-21T00:17:40;10.50;99.90
68139;DHT22;54940;50.842;4.410;2023-11-21T00:20:06;10.50;99.90
68139;DHT22;54940;50.842;4.410;2023-11-21T00:22:35;10.50;99.90
68139;DHT22;54940;50.842;4.410;2023-11-21T00:25:02;10.40;99.90
68139;DHT22;54940;50.842;4.410;2023-11-21T00:27:29;10.40;99.90
68139;DHT22;54940;50.842;4.410;2023-11-21T00:29:55;10.40;99.90
68139;DHT22;54940;50.842;4.410;2023-11-21T00:32:20;10.30;99.90
68139;DHT22;54940;50.842;4.410;2023-11-21T00:34:46;10.40;99.90
68139;DHT22;54940;50.842;4.410;2023-11-21T00:37:14;10.40;99.90
68139;DHT22;54940;50.842;4.410;2023-11-21T00:39:40;10.50;99.90
68139;DHT22;54940;50.842;4.410;2023-11-21T00:42:06;10.40;99.90
68139;DHT22;54940;50.842;4.410;2023-11-21T00:44:31;10.30;99.90
68139;DHT22;54940;50.842;4.410;2023-11-21T00:46:57;10.30;99.90
68139;DHT22;54940;50.842;4.410;2023-11-21T00:49:23;10.30;99.90
68139;DHT22;54940;50.842;4.410;2023-11-21T00:51:48;10.30;99.90
68139;DHT22;54940;50.842;4.410;2023-11-21T00:54:14;10.30;99.90
68139;DHT22;54940;50.842;4.410;2023-11-21T00:56:44;10.30;99.90
68139;DHT22;54940;50.842;4.410;2023-11-21T00:59:12;10.20;99.90
68139;DHT22;54940;50.842;4.410;2023-11-21T01:01:40;10.20;99.90
68139;DHT22;54940;50.842;4.410;2023-11-21T01:04:06;10.30;99.90
68139;DHT22;54940;50.842;4.410;2023-11-21T01:06:32;10.20;99.90
68139;DHT22;54940;50.842;4.410;2023-11-21T01:09:00;10.20;99.90
68139;DHT22;54940;50.842;4.410;2023-11-21T01:11:33;10.20;99.90
68139;DHT22;54940;50.842;4.410;2023-11-21T01:14:01;10.20;99.90
68139;DHT22;54940;50.842;4.410;2023-11-21T01:16:29;10.10;99.90
68139;DHT22;54940;50.842;4.410;2023-11-21T01:18:54;10.10;99.90
68139;DHT22;54940;50.842;4.410;2023-11-21T01:21:20;10.10;99.90
68139;DHT22;54940;50.842;4.410;2023-11-21T01:23:45;10.10;99.90
68139;DHT22;54940;50.842;4.410;2023-11-21T01:26:13;9.90;99.90
68139;DHT22;54940;50.842;4.410;2023-11-21T01:28:38;10.00;99.90
68139;DHT22;54940;50.842;4.410;2023-11-21T01:31:06;10.10;99.90
68139;DHT22;54940;50.842;4.410;2023-11-21T01:33:32;10.10;99.90
68139;DHT22;54940;50.842;4.410;2023-11-21T01:35:58;10.10;99.90
68139;DHT22;54940;50.842;4.410;2023-11-21T01:38:25;10.20;99.90
68139;DHT22;54940;50.842;4.410;2023-11-21T01:40:51;10.20;99.90
68139;DHT22;54940;50.842;4.410;2023-11-21T01:43:16;10.20;99.90
68139;DHT22;54940;50.842;4.410;2023-11-21T01:45:42;10.20;99.90
68139;DHT22;54940;50.842;4.410;2023-11-21T01:48:08;10.20;99.90
68139;DHT22;54940;50.842;4.410;2023-11-21T01:50:34;10.20;99.90
68139;DHT22;54940;50.842;4.410;2023-11-21T01:53:00;10.20;99.90
68139;DHT22;54940;50.842;4.410;2023-11-21T01:55:27;10.20;99.90
68139;DHT22;54940;50.842;4.410;2023-11-21T01:57:56;10.20;99.90
68139;DHT22;54940;50.842;4.410;2023-11-21T02:00:25;10.10;99.90
68139;DHT22;54940;50.842;4.410;2023-11-21T02:02:53;10.10;99.90
68139;DHT22;54940;50.842;4.410;2023-11-21T02:05:20;10.00;99.90
68139;DHT22;54940;50.842;4.410;2023-11-21T02:07:47;10.20;99.90
68139;DHT22;54940;50.842;4.410;2023-11-21T02:10:14;10.10;99.90
68139;DHT22;54940;50.842;4.410;2023-11-21T02:12:41;10.20;99.90
68139;DHT22;54940;50.842;4.410;2023-11-21T02:15:09;10.20;99.90
68139;DHT22;54940;50.842;4.410;2023-11-21T02:17:41;10.20;99.90
68139;DHT22;54940;50.842;4.410;2023-11-21T02:20:13;10.20;99.90
68139;DHT22;54940;50.842;4.410;2023-11-21T02:22:53;10.10;99.90
68139;DHT22;54940;50.842;4.410;2023-11-21T02:25:30;10.10;99.90
68139;DHT22;54940;50.842;4.410;2023-11-21T02:27:56;10.20;99.90
68139;DHT22;54940;50.842;4.410;2023-11-21T02:30:23;10.20;99.90
68139;DHT22;54940;50.842;4.410;2023-11-21T02:32:51;10.20;99.90
68139;DHT22;54940;50.842;4.410;2023-11-21T02:35:19;10.20;99.90
68139;DHT22;54940;50.842;4.410;2023-11-21T02:37:47;10.30;99.90
68139;DHT22;54940;50.842;4.410;2023-11-21T02:40:12;10.20;99.90
68139;DHT22;54940;50.842;4.410;2023-11-21T02:42:39;10.20;99.90
68139;DHT22;54940;50.842;4.410;2023-11-21T02:45:07;10.10;99.90
68139;DHT22;54940;50.842;4.410;2023-11-21T02:47:33;10.20;99.90
68139;DHT22;54940;50.842;4.410;2023-11-21T02:49:59;10.20;99.90
68139;DHT22;54940;50.842;4.410;2023-11-21T02:52:25;10.20;99.90
68139;DHT22;54940;50.842;4.410;2023-11-21T02:54:50;10.20;99.90
68139;DHT22;54940;50.842;4.410;2023-11-21T02:57:16;10.20;99.90
68139;DHT22;54940;50.842;4.410;2023-11-21T02:59:42;10.10;99.90
68139;DHT22;54940;50.842;4.410;2023-11-21T03:02:08;10.20;99.90
68139;DHT22;54940;50.842;4.410;2023-11-21T03:04:34;10.20;99.90
68139;DHT22;54940;50.842;4.410;2023-11-21T03:07:00;10.20;99.90
68139;DHT22;54940;50.842;4.410;2023-11-21T03:09:26;10.20;99.90
68139;DHT22;54940;50.842;4.410;2023-11-21T03:11:54;10.30;99.90
68139;DHT22;54940;50.842;4.410;2023-11-21T03:14:20;10.20;99.90
68139;DHT22;54940;50.842;4.410;2023-11-21T03:16:45;10.20;99.90
68139;DHT22;54940;50.842;4.410;2023-11-21T03:19:11;10.20;99.90
68139;DHT22;54940;50.842;4.410;2023-11-21T03:21:37;10.20;99.90
68139;DHT22;54940;50.842;4.410;2023-11-21T03:24:03;10.30;99.90
68139;DHT22;54940;50.842;4.410;2023-11-21T03:26:29;10.30;99.90
68139;DHT22;54940;50.842;4.410;2023-11-21T03:28:55;10.30;99.90
68139;DHT22;54940;50.842;4.410;2023-11-21T03:31:21;10.30;99.90
68139;DHT22;54940;50.842;4.410;2023-11-21T03:33:47;10.20;99.90
68139;DHT22;54940;50.842;4.410;2023-11-21T03:36:13;10.20;99.90
68139;DHT22;54940;50.842;4.410;2023-11-21T03:38:43;10.30;99.90
68139;DHT22;54940;50.842;4.410;2023-11-21T03:41:08;10.30;99.90
68139;DHT22;54940;50.842;4.410;2023-11-21T03:43:37;10.30;99.90
68139;DHT22;54940;50.842;4.410;2023-11-21T03:46:05;10.30;99.90
68139;DHT22;54940;50.842;4.410;2023-11-21T03:48:31;10.40;99.90
68139;DHT22;54940;50.842;4.410;2023-11-21T03:50:58;10.40;99.90
68139;DHT22;54940;50.842;4.410;2023-11-21T03:53:24;10.40;99.90
68139;DHT22;54940;50.842;4.410;2023-11-21T03:55:49;10.40;99.90
68139;DHT22;54940;50.842;4.410;2023-11-21T03:58:18;10.40;99.90
68139;DHT22;54940;50.842;4.410;2023-11-21T04:00:43;10.50;99.90
68139;DHT22;54940;50.842;4.410;2023-11-21T04:03:09;10.50;99.90
68139;DHT22;54940;50.842;4.410;2023-11-21T04:05:35;10.40;99.90
68139;DHT22;54940;50.842;4.410;2023-11-21T04:08:00;10.40;99.90
68139;DHT22;54940;50.842;4.410;2023-11-21T04:10:26;10.50;99.90
68139;DHT22;54940;50.842;4.410;2023-11-21T04:12:51;10.40;99.90
68139;DHT22;54940;50.842;4.410;2023-11-21T04:15:17;10.40;99.90
68139;DHT22;54940;50.842;4.410;2023-11-21T04:17:43;10.50;99.90
68139;DHT22;54940;50.842;4.410;2023-11-21T04:20:09;10.50;99.90
68139;DHT22;54940;50.842;4.410;2023-11-21T04:22:39;10.50;99.90
68139;DHT22;54940;50.842;4.410;2023-11-21T04:25:10;10.40;99.90
68139;DHT22;54940;50.842;4.410;2023-11-21T04:27:36;10.50;99.90
68139;DHT22;54940;50.842;4.410;2023-11-21T04:30:03;10.40;99.90
68139;DHT22;54940;50.842;4.410;2023-11-21T04:32:31;10.50;99.90
68139;DHT22;54940;50.842;4.410;2023-11-21T04:34:57;10.40;99.90
68139;DHT22;54940;50.842;4.410;2023-11-21T04:37:23;10.30;99.90
68139;DHT22;54940;50.842;4.410;2023-11-21T04:39:49;10.30;99.90
68139;DHT22;54940;50.842;4.410;2023-11-21T04:42:15;10.30;99.90
68139;DHT22;54940;50.842;4.410;2023-11-21T04:44:41;10.30;99.90
68139;DHT22;54940;50.842;4.410;2023-11-21T04:47:07;10.40;99.90
68139;DHT22;54940;50.842;4.410;2023-11-21T04:49:33;10.40;99.90
68139;DHT22;54940;50.842;4.410;2023-11-21T04:51:59;10.30;99.90
68139;DHT22;54940;50.842;4.410;2023-11-21T04:54:25;10.30;99.90
68139;DHT22;54940;50.842;4.410;2023-11-21T04:56:50;10.30;99.90
68139;DHT22;54940;50.842;4.410;2023-11-21T04:59:16;10.30;99.90
68139;DHT22;54940;50.842;4.410;2023-11-21T05:01:42;10.40;99.90
68139;DHT22;54940;50.842;4.410;2023-11-21T05:04:07;10.30;99.90
68139;DHT22;54940;50.842;4.410;2023-11-21T05:06:34;10.30;99.90
68139;DHT22;54940;50.842;4.410;2023-11-21T05:09:00;10.40;99.90
68139;DHT22;54940;50.842;4.410;2023-11-21T05:11:26;10.30;99.90
68139;DHT22;54940;50.842;4.410;2023-11-21T05:13:52;10.30;99.90
68139;DHT22;54940;50.842;4.410;2023-11-21T05:16:19;10.30;99.90
68139;DHT22;54940;50.842;4.410;2023-11-21T05:18:45;10.30;99.90
68139;DHT22;54940;50.842;4.410;2023-11-21T05:21:11;10.30;99.90
68139;DHT22;54940;50.842;4.410;2023-11-21T05:23:37;10.40;99.90
68139;DHT22;54940;50.842;4.410;2023-11-21T05:26:03;10.40;99.90
68139;DHT22;54940;50.842;4.410;2023-11-21T05:28:28;10.30;99.90
68139;DHT22;54940;50.842;4.410;2023-11-21T05:30:54;10.40;99.90
68139;DHT22;54940;50.842;4.410;2023-11-21T05:33:20;10.40;99.90
68139;DHT22;54940;50.842;4.410;2023-11-21T05:35:46;10.40;99.90
68139;DHT22;54940;50.842;4.410;2023-11-21T05:38:14;10.40;99.90
68139;DHT22;54940;50.842;4.410;2023-11-21T05:40:39;10.40;99.90
68139;DHT22;54940;50.842;4.410;2023-11-21T05:43:06;10.30;99.90
68139;DHT22;54940;50.842;4.410;2023-11-21T05:45:32;10.40;99.90
68139;DHT22;54940;50.842;4.410;2023-11-21T05:48:01;10.30;99.90
68139;DHT22;54940;50.842;4.410;2023-11-21T05:50:30;10.40;99.90
68139;DHT22;54940;50.842;4.410;2023-11-21T05:52:56;10.30;99.90
68139;DHT22;54940;50.842;4.410;2023-11-21T05:55:25;10.30;99.90
68139;DHT22;54940;50.842;4.410;2023-11-21T05:57:51;10.30;99.90
68139;DHT22;54940;50.842;4.410;2023-11-21T06:00:17;10.30;99.90
68139;DHT22;54940;50.842;4.410;2023-11-21T06:02:52;10.30;99.90
68139;DHT22;54940;50.842;4.410;2023-11-21T06:05:24;10.40;99.90
68139;DHT22;54940;50.842;4.410;2023-11-21T06:07:51;10.40;99.90
68139;DHT22;54940;50.842;4.410;2023-11-21T06:10:19;10.40;99.90
68139;DHT22;54940;50.842;4.410;2023-11-21T06:12:47;10.50;99.90
68139;DHT22;54940;50.842;4.410;2023-11-21T06:15:13;10.40;99.90
68139;DHT22;54940;50.842;4.410;2023-11-21T06:17:40;10.50;99.90
68139;DHT22;54940;50.842;4.410;2023-11-21T06:20:07;10.50;99.90
68139;DHT22;54940;50.842;4.410;2023-11-21T06:22:40;10.40;99.90
68139;DHT22;54940;50.842;4.410;2023-11-21T06:25:07;10.40;99.90
68139;DHT22;54940;50.842;4.410;2023-11-21T06:27:38;10.50;99.90
68139;DHT22;54940;50.842;4.410;2023-11-21T06:30:04;10.50;99.90
68139;DHT22;54940;50.842;4.410;2023-11-21T06:32:30;10.40;99.90
68139;DHT22;54940;50.842;4.410;2023-11-21T06:34:56;10.30;99.90
68139;DHT22;54940;50.842;4.410;2023-11-21T06:37:26;10.40;99.90
68139;DHT22;54940;50.842;4.410;2023-11-21T06:39:52;10.50;99.90
68139;DHT22;54940;50.842;4.410;2023-11-21T06:42:18;10.50;99.90
68139;DHT22;54940;50.842;4.410;2023-11-21T06:44:47;10.50;99.90
68139;DHT22;54940;50.842;4.410;2023-11-21T06:47:13;10.60;99.90
68139;DHT22;54940;50.842;4.410;2023-11-21T06:49:39;10.50;99.90
68139;DHT22;54940;50.842;4.410;2023-11-21T06:52:05;10.50;99.90
68139;DHT22;54940;50.842;4.410;2023-11-21T06:54:31;10.50;99.90
68139;DHT22;54940;50.842;4.410;2023-11-21T06:56:57;10.50;99.90
68139;DHT22;54940;50.842;4.410;2023-11-21T06:59:25;10.50;99.90
68139;DHT22;54940;50.842;4.410;2023-11-21T07:01:51;10.60;99.90
68139;DHT22;54940;50.842;4.410;2023-11-21T07:04:16;10.60;99.90
68139;DHT22;54940;50.842;4.410;2023-11-21T07:06:43;10.60;99.90
68139;DHT22;54940;50.842;4.410;2023-11-21T07:09:09;10.60;99.90
68139;DHT22;54940;50.842;4.410;2023-11-21T07:11:37;10.70;99.90
68139;DHT22;54940;50.842;4.410;2023-11-21T07:14:04;10.70;99.90
68139;DHT22;54940;50.842;4.410;2023-11-21T07:16:36;10.70;99.90
68139;DHT22;54940;50.842;4.410;2023-11-21T07:19:05;10.60;99.90
68139;DHT22;54940;50.842;4.410;2023-11-21T07:21:34;10.60;99.90
68139;DHT22;54940;50.842;4.410;2023-11-21T07:24:01;10.70;99.90
68139;DHT22;54940;50.842;4.410;2023-11-21T07:26:27;10.60;99.90
68139;DHT22;54940;50.842;4.410;2023-11-21T07:28:53;10.70;99.90
68139;DHT22;54940;50.842;4.410;2023-11-21T07:31:19;10.60;99.90
68139;DHT22;54940;50.842;4.410;2023-11-21T07:33:48;10.60;99.90
68139;DHT22;54940;50.842;4.410;2023-11-21T07:36:16;10.70;99.90
68139;DHT22;54940;50.842;4.410;2023-11-21T07:38:44;10.70;99.90
68139;DHT22;54940;50.842;4.410;2023-11-21T07:41:10;10.70;99.90
68139;DHT22;54940;50.842;4.410;2023-11-21T07:43:36;10.70;99.90
68139;DHT22;54940;50.842;4.410;2023-11-21T07:46:03;10.80;99.90
68139;DHT22;54940;50.842;4.410;2023-11-21T07:48:33;10.80;99.90
68139;DHT22;54940;50.842;4.410;2023-11-21T07:51:00;10.70;99.90
68139;DHT22;54940;50.842;4.410;2023-11-21T07:53:26;10.70;99.90
68139;DHT22;54940;50.842;4.410;2023-11-21T07:55:56;10.70;99.90
68139;DHT22;54940;50.842;4.410;2023-11-21T07:58:21;10.70;99.90
68139;DHT22;54940;50.842;4.410;2023-11-21T08:00:47;10.80;99.90
68139;DHT22;54940;50.842;4.410;2023-11-21T08:03:15;10.80;99.90
68139;DHT22;54940;50.842;4.410;2023-11-21T08:05:42;10.80;99.90
68139;DHT22;54940;50.842;4.410;2023-11-21T08:08:08;10.80;99.90
68139;DHT22;54940;50.842;4.410;2023-11-21T08:10:34;10.90;99.90
68139;DHT22;54940;50.842;4.410;2023-11-21T08:13:01;10.90;99.90
68139;DHT22;54940;50.842;4.410;2023-11-21T08:15:27;10.80;99.90
68139;DHT22;54940;50.842;4.410;2023-11-21T08:17:53;10.80;99.90
68139;DHT22;54940;50.842;4.410;2023-11-21T08:20:19;10.80;99.90
68139;DHT22;54940;50.842;4.410;2023-11-21T08:22:45;10.80;99.90
68139;DHT22;54940;50.842;4.410;2023-11-21T08:25:11;10.80;99.90
68139;DHT22;54940;50.842;4.410;2023-11-21T08:27:36;10.80;99.90
68139;DHT22;54940;50.842;4.410;2023-11-21T08:30:03;10.70;99.90
68139;DHT22;54940;50.842;4.410;2023-11-21T08:32:29;10.70;99.90
68139;DHT22;54940;50.842;4.410;2023-11-21T08:34:59;10.80;99.90
68139;DHT22;54940;50.842;4.410;2023-11-21T08:37:25;10.80;99.90
68139;DHT22;54940;50.842;4.410;2023-11-21T08:39:52;10.90;99.90
68139;DHT22;54940;50.842;4.410;2023-11-21T08:42:19;11.00;99.90
68139;DHT22;54940;50.842;4.410;2023-11-21T08:44:44;10.80;99.90
68139;DHT22;54940;50.842;4.410;2023-11-21T08:47:11;10.80;99.90
68139;DHT22;54940;50.842;4.410;2023-11-21T08:49:37;10.70;99.90
68139;DHT22;54940;50.842;4.410;2023-11-21T08:52:05;10.80;99.90
68139;DHT22;54940;50.842;4.410;2023-11-21T08:54:32;10.70;99.90
68139;DHT22;54940;50.842;4.410;2023-11-21T08:56:57;10.70;99.90
68139;DHT22;54940;50.842;4.410;2023-11-21T08:59:26;10.80;99.90
68139;DHT22;54940;50.842;4.410;2023-11-21T09:01:52;10.80;99.90
68139;DHT22;54940;50.842;4.410;2023-11-21T09:04:17;10.90;99.90
68139;DHT22;54940;50.842;4.410;2023-11-21T09:06:43;11.00;99.90
68139;DHT22;54940;50.842;4.410;2023-11-21T09:09:09;10.90;99.90
68139;DHT22;54940;50.842;4.410;2023-11-21T09:11:36;10.90;99.90
68139;DHT22;54940;50.842;4.410;2023-11-21T09:14:04;10.90;99.90
68139;DHT22;54940;50.842;4.410;2023-11-21T09:16:29;11.00;99.90
68139;DHT22;54940;50.842;4.410;2023-11-21T09:18:55;11.00;99.90
68139;DHT22;54940;50.842;4.410;2023-11-21T09:21:21;11.10;99.90
68139;DHT22;54940;50.842;4.410;2023-11-21T09:23:47;11.10;99.90
68139;DHT22;54940;50.842;4.410;2023-11-21T09:26:13;11.00;99.90
68139;DHT22;54940;50.842;4.410;2023-11-21T09:28:42;11.10;99.90
68139;DHT22;54940;50.842;4.410;2023-11-21T09:31:12;11.10;99.90
68139;DHT22;54940;50.842;4.410;2023-11-21T09:33:37;11.10;99.90
68139;DHT22;54940;50.842;4.410;2023-11-21T09:36:04;11.10;99.90
68139;DHT22;54940;50.842;4.410;2023-11-21T09:38:32;11.10;99.90
68139;DHT22;54940;50.842;4.410;2023-11-21T09:40:58;11.10;99.90
68139;DHT22;54940;50.842;4.410;2023-11-21T09:43:25;11.20;99.90
68139;DHT22;54940;50.842;4.410;2023-11-21T09:46:00;11.20;99.90
68139;DHT22;54940;50.842;4.410;2023-11-21T09:48:27;11.30;99.90
68139;DHT22;54940;50.842;4.410;2023-11-21T09:50:56;11.20;99.90
68139;DHT22;54940;50.842;4.410;2023-11-21T09:53:22;11.20;99.90
68139;DHT22;54940;50.842;4.410;2023-11-21T09:55:53;11.30;99.90
68139;DHT22;54940;50.842;4.410;2023-11-21T09:58:20;11.20;99.90
68139;DHT22;54940;50.842;4.410;2023-11-21T10:00:48;11.20;99.90
68139;DHT22;54940;50.842;4.410;2023-11-21T10:03:15;11.20;99.90
68139;DHT22;54940;50.842;4.410;2023-11-21T10:05:45;11.20;99.90
68139;DHT22;54940;50.842;4.410;2023-11-21T10:08:12;11.10;99.90
68139;DHT22;54940;50.842;4.410;2023-11-21T10:10:44;11.10;99.90
68139;DHT22;54940;50.842;4.410;2023-11-21T10:13:12;11.20;99.90
68139;DHT22;54940;50.842;4.410;2023-11-21T10:15:42;11.10;99.90
68139;DHT22;54940;50.842;4.410;2023-11-21T10:18:14;11.10;99.90
68139;DHT22;54940;50.842;4.410;2023-11-21T10:20:40;11.00;99.90
68139;DHT22;54940;50.842;4.410;2023-11-21T10:23:07;11.00;99.90
68139;DHT22;54940;50.842;4.410;2023-11-21T10:25:37;11.00;99.90
68139;DHT22;54940;50.842;4.410;2023-11-21T10:28:05;11.10;99.90
68139;DHT22;54940;50.842;4.410;2023-11-21T10:30:35;11.10;99.90
68139;DHT22;54940;50.842;4.410;2023-11-21T10:33:07;11.30;99.90
68139;DHT22;54940;50.842;4.410;2023-11-21T10:35:46;11.30;99.90
68139;DHT22;54940;50.842;4.410;2023-11-21T10:38:21;11.30;99.90
68139;DHT22;54940;50.842;4.410;2023-11-21T10:40:49;11.40;99.90
68139;DHT22;54940;50.842;4.410;2023-11-21T10:43:15;11.50;99.90
68139;DHT22;54940;50.842;4.410;2023-11-21T10:45:42;11.50;99.90
68139;DHT22;54940;50.842;4.410;2023-11-21T10:48:09;11.60;99.90
68139;DHT22;54940;50.842;4.410;2023-11-21T10:50:36;11.60;99.90
68139;DHT22;54940;50.842;4.410;2023-11-21T10:53:05;11.50;99.90
68139;DHT22;54940;50.842;4.410;2023-11-21T10:55:32;11.50;99.90
68139;DHT22;54940;50.842;4.410;2023-11-21T10:58:00;11.50;99.90
68139;DHT22;54940;50.842;4.410;2023-11-21T11:00:28;11.50;99.90
68139;DHT22;54940;50.842;4.410;2023-11-21T11:02:55;11.50;99.90
68139;DHT22;54940;50.842;4.410;2023-11-21T11:05:23;11.50;99.90
68139;DHT22;54940;50.842;4.410;2023-11-21T11:10:28;11.60;99.90
68139;DHT22;54940;50.842;4.410;2023-11-21T11:12:55;11.70;99.90
68139;DHT22;54940;50.842;4.410;2023-11-21T11:15:23;11.70;99.90
68139;DHT22;54940;50.842;4.410;2023-11-21T11:17:49;11.80;99.90
68139;DHT22;54940;50.842;4.410;2023-11-21T11:20:16;11.70;99.90
68139;DHT22;54940;50.842;4.410;2023-11-21T11:28:15;11.50;99.90
68139;DHT22;54940;50.842;4.410;2023-11-21T11:38:39;11.70;99.90
68139;DHT22;54940;50.842;4.410;2023-11-21T11:41:10;11.80;99.90
68139;DHT22;54940;50.842;4.410;2023-11-21T11:43:35;11.80;99.90
68139;DHT22;54940;50.842;4.410;2023-11-21T11:46:11;11.90;99.90
68139;DHT22;54940;50.842;4.410;2023-11-21T11:48:40;11.90;99.90
68139;DHT22;54940;50.842;4.410;2023-11-21T11:51:06;12.00;99.90
68139;DHT22;54940;50.842;4.410;2023-11-21T11:53:43;11.90;99.90
68139;DHT22;54940;50.842;4.410;2023-11-21T11:56:29;11.90;99.90
68139;DHT22;54940;50.842;4.410;2023-11-21T11:59:03;12.00;99.90
68139;DHT22;54940;50.842;4.410;2023-11-21T12:01:30;12.00;99.90
68139;DHT22;54940;50.842;4.410;2023-11-21T12:06:44;11.90;99.90
68139;DHT22;54940;50.842;4.410;2023-11-21T12:09:23;11.90;99.90
68139;DHT22;54940;50.842;4.410;2023-11-21T12:11:49;11.90;99.90
68139;DHT22;54940;50.842;4.410;2023-11-21T12:14:16;11.80;99.90
68139;DHT22;54940;50.842;4.410;2023-11-21T12:16:42;11.70;99.90
68139;DHT22;54940;50.842;4.410;2023-11-21T12:19:09;11.80;99.90
68139;DHT22;54940;50.842;4.410;2023-11-21T12:21:36;11.80;99.90
68139;DHT22;54940;50.842;4.410;2023-11-21T12:24:02;11.70;99.90
68139;DHT22;54940;50.842;4.410;2023-11-21T12:26:28;11.80;99.90
68139;DHT22;54940;50.842;4.410;2023-11-21T12:28:54;11.80;99.90
68139;DHT22;54940;50.842;4.410;2023-11-21T12:31:24;11.70;99.90
68139;DHT22;54940;50.842;4.410;2023-11-21T12:33:50;11.70;99.90
68139;DHT22;54940;50.842;4.410;2023-11-21T12:36:16;11.80;99.90
68139;DHT22;54940;50.842;4.410;2023-11-21T12:38:44;11.80;99.90
68139;DHT22;54940;50.842;4.410;2023-11-21T12:41:10;11.80;99.90
68139;DHT22;54940;50.842;4.410;2023-11-21T12:43:36;11.80;99.90
68139;DHT22;54940;50.842;4.410;2023-11-21T12:46:10;11.80;99.90
68139;DHT22;54940;50.842;4.410;2023-11-21T12:48:43;11.70;99.90
68139;DHT22;54940;50.842;4.410;2023-11-21T12:51:10;11.70;99.90
68139;DHT22;54940;50.842;4.410;2023-11-21T12:53:37;11.70;99.90
68139;DHT22;54940;50.842;4.410;2023-11-21T12:58:35;11.90;99.90
68139;DHT22;54940;50.842;4.410;2023-11-21T13:01:01;12.00;99.90
68139;DHT22;54940;50.842;4.410;2023-11-21T13:03:29;12.00;99.90
68139;DHT22;54940;50.842;4.410;2023-11-21T13:05:55;12.10;99.90
68139;DHT22;54940;50.842;4.410;2023-11-21T13:08:23;12.00;99.90
68139;DHT22;54940;50.842;4.410;2023-11-21T13:10:56;11.90;99.90
68139;DHT22;54940;50.842;4.410;2023-11-21T13:13:23;11.90;99.90
68139;DHT22;54940;50.842;4.410;2023-11-21T13:15:54;11.90;99.90
68139;DHT22;54940;50.842;4.410;2023-11-21T13:18:24;12.00;99.90
68139;DHT22;54940;50.842;4.410;2023-11-21T13:20:55;11.90;99.90
68139;DHT22;54940;50.842;4.410;2023-11-21T13:23:21;11.80;99.90
68139;DHT22;54940;50.842;4.410;2023-11-21T13:25:48;11.80;99.90
68139;DHT22;54940;50.842;4.410;2023-11-21T13:28:15;11.60;99.90
68139;DHT22;54940;50.842;4.410;2023-11-21T13:30:41;11.70;99.90
68139;DHT22;54940;50.842;4.410;2023-11-21T13:33:08;11.70;99.90
68139;DHT22;54940;50.842;4.410;2023-11-21T13:35:43;11.70;99.90
68139;DHT22;54940;50.842;4.410;2023-11-21T13:38:15;11.70;99.90
68139;DHT22;54940;50.842;4.410;2023-11-21T13:40:47;11.80;99.90
68139;DHT22;54940;50.842;4.410;2023-11-21T13:43:16;11.80;99.90
68139;DHT22;54940;50.842;4.410;2023-11-21T13:45:43;11.90;99.90
68139;DHT22;54940;50.842;4.410;2023-11-21T13:48:10;11.90;99.90
68139;DHT22;54940;50.842;4.410;2023-11-21T13:50:39;11.90;99.90
68139;DHT22;54940;50.842;4.410;2023-11-21T13:53:11;11.90;99.90
68139;DHT22;54940;50.842;4.410;2023-11-21T13:55:48;11.90;99.90
68139;DHT22;54940;50.842;4.410;2023-11-21T13:58:17;11.90;99.90
68139;DHT22;54940;50.842;4.410;2023-11-21T14:00:50;11.80;99.90
68139;DHT22;54940;50.842;4.410;2023-11-21T14:03:25;11.80;99.90
68139;DHT22;54940;50.842;4.410;2023-11-21T14:06:03;11.80;99.90
68139;DHT22;54940;50.842;4.410;2023-11-21T14:08:34;11.70;99.90
68139;DHT22;54940;50.842;4.410;2023-11-21T14:11:00;11.70;99.90
68139;DHT22;54940;50.842;4.410;2023-11-21T14:13:26;11.60;99.90
68139;DHT22;54940;50.842;4.410;2023-11-21T14:15:52;11.70;99.90
68139;DHT22;54940;50.842;4.410;2023-11-21T14:18:27;11.60;99.90
68139;DHT22;54940;50.842;4.410;2023-11-21T14:21:01;11.60;99.90
68139;DHT22;54940;50.842;4.410;2023-11-21T14:23:27;11.60;99.90
68139;DHT22;54940;50.842;4.410;2023-11-21T14:25:54;11.60;99.90
68139;DHT22;54940;50.842;4.410;2023-11-21T14:28:19;11.60;99.90
68139;DHT22;54940;50.842;4.410;2023-11-21T14:30:46;11.60;99.90
68139;DHT22;54940;50.842;4.410;2023-11-21T14:33:14;11.60;99.90
68139;DHT22;54940;50.842;4.410;2023-11-21T14:35:42;11.50;99.90
68139;DHT22;54940;50.842;4.410;2023-11-21T14:38:08;11.60;99.90
68139;DHT22;54940;50.842;4.410;2023-11-21T14:40:35;11.50;99.90
68139;DHT22;54940;50.842;4.410;2023-11-21T14:43:04;11.60;99.90
68139;DHT22;54940;50.842;4.410;2023-11-21T14:45:33;11.70;99.90
68139;DHT22;54940;50.842;4.410;2023-11-21T14:47:59;11.70;99.90
68139;DHT22;54940;50.842;4.410;2023-11-21T14:50:41;11.70;99.90
68139;DHT22;54940;50.842;4.410;2023-11-21T14:53:11;11.70;99.90
68139;DHT22;54940;50.842;4.410;2023-11-21T14:55:39;11.50;99.90
68139;DHT22;54940;50.842;4.410;2023-11-21T14:58:05;11.50;99.90
68139;DHT22;54940;50.842;4.410;2023-11-21T15:00:31;11.30;99.90
68139;DHT22;54940;50.842;4.410;2023-11-21T15:03:00;11.30;99.90
68139;DHT22;54940;50.842;4.410;2023-11-21T15:05:26;11.40;99.90
68139;DHT22;54940;50.842;4.410;2023-11-21T15:07:53;11.30;99.90
68139;DHT22;54940;50.842;4.410;2023-11-21T15:10:22;11.30;99.90
68139;DHT22;54940;50.842;4.410;2023-11-21T15:13:03;11.40;99.90
68139;DHT22;54940;50.842;4.410;2023-11-21T15:15:29;11.40;99.90
68139;DHT22;54940;50.842;4.410;2023-11-21T15:17:57;11.40;99.90
68139;DHT22;54940;50.842;4.410;2023-11-21T15:20:22;11.40;99.90
68139;DHT22;54940;50.842;4.410;2023-11-21T15:22:48;11.40;99.90
68139;DHT22;54940;50.842;4.410;2023-11-21T15:25:16;11.40;99.90
68139;DHT22;54940;50.842;4.410;2023-11-21T15:27:41;11.50;99.90
68139;DHT22;54940;50.842;4.410;2023-11-21T15:30:07;11.40;99.90
68139;DHT22;54940;50.842;4.410;2023-11-21T15:32:33;11.30;99.90
68139;DHT22;54940;50.842;4.410;2023-11-21T15:34:59;11.20;99.90
68139;DHT22;54940;50.842;4.410;2023-11-21T15:37:25;11.30;99.90
68139;DHT22;54940;50.842;4.410;2023-11-21T15:39:54;11.30;99.90
68139;DHT22;54940;50.842;4.410;2023-11-21T15:42:19;11.20;99.90
68139;DHT22;54940;50.842;4.410;2023-11-21T15:44:45;11.20;99.90
68139;DHT22;54940;50.842;4.410;2023-11-21T15:47:11;11.20;99.90
68139;DHT22;54940;50.842;4.410;2023-11-21T15:49:36;11.20;99.90
68139;DHT22;54940;50.842;4.410;2023-11-21T15:52:03;11.20;99.90